Time;durP1;ratioP1;P1;durP2;ratioP2;P2;SDS_P1;SDS_P2;PMS_P1;PMS_P2;Temp;Humidity;BMP_temperature;BMP_pressure;BME280_temperature;BME280_humidity;BME280_pressure;Samples;Min_cycle;Max_cycle;Signal;HPM_P1;HPM_P2
2022/11/17 00:00:27;;;;;;;4.25;3.95;;;7.70;99.90;;;;;;5132533;27;20238;-71
2022/11/17 00:02:56;;;;;;;3.55;3.35;;;7.60;99.90;;;;;;5130183;27;20364;-71
2022/11/17 00:05:24;;;;;;;4.30;4.00;;;7.60;99.90;;;;;;5128770;27;20192;-71
2022/11/17 00:07:51;;;;;;;4.20;3.90;;;7.60;99.90;;;;;;5130687;27;20272;-71
2022/11/17 00:10:18;;;;;;;3.83;3.53;;;7.60;99.90;;;;;;5131751;27;20211;-71
2022/11/17 00:15:30;;;;;;;4.28;3.97;;;7.70;99.90;;;;;;5124156;27;20214;-72
2022/11/17 00:23:24;;;;;;;4.32;4.03;;;7.60;99.90;;;;;;5126104;27;20732;-72
2022/11/17 00:25:52;;;;;;;3.65;3.45;;;7.60;99.90;;;;;;5120061;27;20192;-72
2022/11/17 00:28:19;;;;;;;3.80;3.58;;;7.60;99.90;;;;;;5125420;27;20247;-72
2022/11/17 00:36:17;;;;;;;3.67;3.47;;;7.60;99.90;;;;;;5132738;27;20195;-72
2022/11/17 00:38:44;;;;;;;3.92;3.63;;;7.60;99.90;;;;;;5134212;27;20227;-72
2022/11/17 00:41:11;;;;;;;4.10;3.90;;;7.60;99.90;;;;;;5136098;27;20199;-72
2022/11/17 00:43:38;;;;;;;4.30;4.00;;;7.60;99.90;;;;;;5128755;27;20223;-72
2022/11/17 00:46:06;;;;;;;4.40;4.10;;;7.60;99.90;;;;;;5131070;27;20192;-72
2022/11/17 00:48:35;;;;;;;4.22;3.88;;;7.60;99.90;;;;;;5128817;27;20212;-72
2022/11/17 00:51:04;;;;;;;4.35;4.05;;;7.60;99.90;;;;;;5131243;27;20200;-72
2022/11/17 00:53:32;;;;;;;4.25;3.95;;;7.50;99.90;;;;;;5130114;27;20212;-72
2022/11/17 00:55:59;;;;;;;4.10;3.80;;;7.50;99.90;;;;;;5127750;27;20207;-72
2022/11/17 00:58:26;;;;;;;4.20;3.90;;;7.50;99.90;;;;;;5129549;27;20227;-72
2022/11/17 01:00:54;;;;;;;4.32;4.00;;;7.50;99.90;;;;;;5132170;27;20205;-72
2022/11/17 01:03:21;;;;;;;4.13;3.83;;;7.50;99.90;;;;;;5131162;27;20243;-72
2022/11/17 01:05:50;;;;;;;4.15;3.85;;;7.50;99.90;;;;;;5130901;27;20196;-72
2022/11/17 01:08:17;;;;;;;4.22;3.92;;;7.50;99.90;;;;;;5132053;27;20216;-72
2022/11/17 01:10:44;;;;;;;4.03;3.72;;;7.50;99.90;;;;;;5131462;27;20185;-72
2022/11/17 01:13:12;;;;;;;3.33;3.13;;;7.50;99.90;;;;;;5130352;27;20216;-70
2022/11/17 01:15:39;;;;;;;4.00;3.60;;;7.50;99.90;;;;;;5129468;27;20203;-70
2022/11/17 01:18:06;;;;;;;3.65;3.45;;;7.50;99.90;;;;;;5131579;27;20208;-70
2022/11/17 01:20:34;;;;;;;3.90;3.63;;;7.50;99.90;;;;;;5128569;27;20227;-70
2022/11/17 01:23:02;;;;;;;3.53;3.33;;;7.50;99.90;;;;;;5134599;27;20227;-70
2022/11/17 01:25:30;;;;;;;3.80;3.58;;;7.50;99.90;;;;;;5131290;27;20200;-70
2022/11/17 01:27:58;;;;;;;3.90;3.65;;;7.50;99.90;;;;;;5129699;27;20269;-70
2022/11/17 01:30:25;;;;;;;3.60;3.40;;;7.50;99.90;;;;;;5132290;27;20204;-70
2022/11/17 01:32:52;;;;;;;3.67;3.47;;;7.50;99.90;;;;;;5132104;27;20212;-70
2022/11/17 01:35:19;;;;;;;3.28;3.08;;;7.50;99.90;;;;;;5132341;27;20208;-70
2022/11/17 01:37:46;;;;;;;4.00;3.70;;;7.50;99.90;;;;;;5127094;27;20208;-70
2022/11/17 01:40:15;;;;;;;3.50;3.30;;;7.50;99.90;;;;;;5127486;27;20220;-70
2022/11/17 01:42:42;;;;;;;3.97;3.75;;;7.50;99.90;;;;;;5132454;27;20216;-70
2022/11/17 01:45:20;;;;;;;4.38;4.07;;;7.40;99.90;;;;;;5130854;27;20196;-70
2022/11/17 01:47:50;;;;;;;3.70;3.40;;;7.40;99.90;;;;;;5129117;27;20218;-70
2022/11/17 01:50:26;;;;;;;3.88;3.60;;;7.40;99.90;;;;;;5128289;27;20212;-70
2022/11/17 01:52:58;;;;;;;3.90;3.60;;;7.30;99.90;;;;;;5130903;27;20866;-70
2022/11/17 01:55:31;;;;;;;3.72;3.38;;;7.30;99.90;;;;;;5132291;27;20204;-71
2022/11/17 01:58:03;;;;;;;3.92;3.63;;;7.30;99.90;;;;;;5128647;27;20837;-71
2022/11/17 02:00:30;;;;;;;4.10;3.80;;;7.30;99.90;;;;;;5125971;27;20216;-71
2022/11/17 02:02:58;;;;;;;3.53;3.33;;;7.30;99.90;;;;;;5127144;27;20984;-70
2022/11/17 02:05:38;;;;;;;3.78;3.50;;;7.30;99.90;;;;;;5129622;27;20616;-70
2022/11/17 02:08:07;;;;;;;3.55;3.28;;;7.30;99.90;;;;;;5130771;27;20730;-70
2022/11/17 02:10:37;;;;;;;4.05;3.60;;;7.30;99.90;;;;;;5130032;27;20193;-71
2022/11/17 02:13:05;;;;;;;4.00;3.70;;;7.30;99.90;;;;;;5125227;27;20220;-71
2022/11/17 02:15:32;;;;;;;3.88;3.58;;;7.20;99.90;;;;;;5123250;27;20193;-70
2022/11/17 02:18:00;;;;;;;4.00;3.70;;;7.10;99.90;;;;;;5127576;27;20224;-71
2022/11/17 02:20:43;;;;;;;3.75;3.45;;;7.10;99.90;;;;;;5129377;27;20219;-70
2022/11/17 02:23:49;;;;;;;3.75;3.45;;;7.00;99.90;;;;;;5123927;27;20246;-70
2022/11/17 02:26:58;;;;;;;3.78;3.58;;;7.00;99.90;;;;;;5095979;27;20196;-70
2022/11/17 02:29:30;;;;;;;4.30;4.00;;;6.90;99.90;;;;;;5128496;27;20232;-71
2022/11/17 02:32:05;;;;;;;3.85;3.55;;;6.80;99.90;;;;;;5122703;27;20215;-70
2022/11/17 02:34:43;;;;;;;3.50;3.30;;;6.80;99.90;;;;;;5124219;27;20218;-71
2022/11/17 02:37:19;;;;;;;3.40;3.20;;;6.80;99.90;;;;;;5126228;27;20227;-71
2022/11/17 02:39:53;;;;;;;3.47;3.28;;;6.80;99.90;;;;;;5129493;27;20211;-71
2022/11/17 02:45:13;;;;;;;3.30;3.10;;;6.90;99.90;;;;;;5124384;27;20191;-71
2022/11/17 02:47:42;;;;;;;3.70;3.40;;;6.90;99.90;;;;;;5128338;27;20219;-71
2022/11/17 02:50:11;;;;;;;3.80;3.50;;;6.90;99.90;;;;;;5128328;27;20219;-71
2022/11/17 02:52:39;;;;;;;3.80;3.47;;;6.90;99.90;;;;;;5125913;27;20212;-72
2022/11/17 02:55:10;;;;;;;3.88;3.67;;;6.90;99.90;;;;;;5122294;27;20718;-71
2022/11/17 02:57:39;;;;;;;3.38;3.17;;;6.90;99.90;;;;;;5130338;27;20216;-71
2022/11/17 03:00:09;;;;;;;3.53;3.33;;;6.90;99.90;;;;;;5127324;27;20219;-71
2022/11/17 03:02:55;;;;;;;3.90;3.60;;;6.90;99.90;;;;;;5128529;27;20215;-71
2022/11/17 03:05:28;;;;;;;3.80;3.50;;;6.90;99.90;;;;;;5127845;27;20253;-71
2022/11/17 03:08:09;;;;;;;3.15;2.95;;;6.90;99.90;;;;;;5127700;27;20211;-71
2022/11/17 03:10:48;;;;;;;3.90;3.63;;;6.90;99.90;;;;;;5128300;27;20668;-71
2022/11/17 03:13:21;;;;;;;4.22;3.92;;;6.90;99.90;;;;;;5125040;27;20278;-71
2022/11/17 03:15:54;;;;;;;3.95;3.55;;;6.90;99.90;;;;;;5129357;27;20192;-71
2022/11/17 03:18:29;;;;;;;3.72;3.42;;;6.90;99.90;;;;;;5127115;27;20343;-71
2022/11/17 03:21:10;;;;;;;3.60;3.40;;;7.00;99.90;;;;;;5126551;27;20212;-72
2022/11/17 03:23:44;;;;;;;3.25;3.05;;;7.00;99.90;;;;;;5126975;27;20212;-71
2022/11/17 03:26:15;;;;;;;3.40;3.20;;;7.00;99.90;;;;;;5126324;27;20196;-71
2022/11/17 03:28:45;;;;;;;3.78;3.47;;;7.00;99.90;;;;;;5126206;27;20630;-71
2022/11/17 03:31:15;;;;;;;3.88;3.67;;;7.00;99.90;;;;;;5123392;27;20196;-71
2022/11/17 03:33:49;;;;;;;3.83;3.63;;;7.00;99.90;;;;;;5129121;27;20223;-71
2022/11/17 03:36:20;;;;;;;3.45;3.25;;;7.00;99.90;;;;;;5127368;27;20212;-71
2022/11/17 03:38:55;;;;;;;3.60;3.40;;;7.00;99.90;;;;;;5129748;27;20684;-71
2022/11/17 03:41:24;;;;;;;3.88;3.58;;;7.00;99.90;;;;;;5128675;27;20227;-71
2022/11/17 03:43:54;;;;;;;3.55;3.35;;;7.00;99.90;;;;;;5129072;27;20219;-71
2022/11/17 03:46:22;;;;;;;3.53;3.25;;;7.00;99.90;;;;;;5127660;27;20193;-71
2022/11/17 03:48:57;;;;;;;3.17;2.97;;;7.00;99.90;;;;;;5118820;27;20223;-72
2022/11/17 03:51:27;;;;;;;3.50;3.30;;;7.10;99.90;;;;;;5128125;27;20196;-71
2022/11/17 03:53:54;;;;;;;3.53;3.33;;;7.10;99.90;;;;;;5120447;28;20219;-71
2022/11/17 03:56:34;;;;;;;3.38;3.17;;;7.10;99.90;;;;;;5140949;27;20199;-71
2022/11/17 03:59:05;;;;;;;3.47;3.28;;;7.10;99.90;;;;;;5141455;27;20813;-71
2022/11/17 04:01:35;;;;;;;3.65;3.35;;;7.10;99.90;;;;;;5126820;27;20220;-71
2022/11/17 04:04:04;;;;;;;3.60;3.40;;;7.10;99.90;;;;;;5126791;27;20201;-71
2022/11/17 04:06:31;;;;;;;3.30;3.10;;;7.10;99.90;;;;;;5130013;27;20192;-72
2022/11/17 04:08:59;;;;;;;3.40;3.10;;;7.10;99.90;;;;;;5128847;28;20224;-71
2022/11/17 04:16:55;;;;;;;3.35;3.15;;;7.20;99.90;;;;;;5126041;27;20215;-71
2022/11/17 04:19:24;;;;;;;3.40;3.20;;;7.20;99.90;;;;;;5125277;27;20269;-71
2022/11/17 04:21:51;;;;;;;9.57;3.28;;;7.20;99.90;;;;;;5126795;27;20757;-70
2022/11/17 04:24:18;;;;;;;3.50;3.30;;;7.10;99.90;;;;;;5124909;28;20614;-70
2022/11/17 04:29:30;;;;;;;3.65;3.45;;;7.10;99.90;;;;;;5125825;28;20626;-70
2022/11/17 04:31:57;;;;;;;3.75;3.55;;;7.10;99.90;;;;;;5125769;27;20221;-70
2022/11/17 04:34:26;;;;;;;3.95;3.67;;;7.10;99.90;;;;;;5124528;27;20204;-71
2022/11/17 04:36:53;;;;;;;3.90;3.60;;;7.10;99.90;;;;;;5127137;27;20224;-71
2022/11/17 04:39:20;;;;;;;3.20;3.00;;;7.20;99.90;;;;;;5128618;28;20228;-71
2022/11/17 04:41:52;;;;;;;3.45;3.25;;;7.20;99.90;;;;;;5123008;28;20216;-71
2022/11/17 04:44:22;;;;;;;3.10;2.90;;;7.10;99.90;;;;;;5127979;28;20249;-71
2022/11/17 04:46:50;;;;;;;3.50;3.20;;;7.20;99.90;;;;;;5126499;27;20235;-71
2022/11/17 04:49:19;;;;;;;3.08;2.88;;;7.20;99.90;;;;;;5125644;28;20219;-71
2022/11/17 04:51:48;;;;;;;3.30;3.10;;;7.20;99.90;;;;;;5125042;27;20215;-71
2022/11/17 04:54:17;;;;;;;3.22;3.03;;;7.20;99.90;;;;;;5128245;28;20196;-71
2022/11/17 04:56:47;;;;;;;3.33;3.10;;;7.10;99.90;;;;;;5127736;27;20739;-71
2022/11/17 04:59:14;;;;;;;3.50;3.30;;;7.10;99.90;;;;;;5126820;27;20594;-71
2022/11/17 05:01:41;;;;;;;4.07;3.78;;;7.10;99.90;;;;;;5127428;27;20257;-71
2022/11/17 05:04:10;;;;;;;3.42;3.13;;;7.10;99.90;;;;;;5124687;27;20204;-72
2022/11/17 05:06:39;;;;;;;3.30;3.10;;;7.10;99.90;;;;;;5126216;27;20196;-72
2022/11/17 05:09:10;;;;;;;3.80;3.53;;;7.10;99.90;;;;;;5123783;27;20220;-71
2022/11/17 05:14:23;;;;;;;3.05;2.85;;;7.10;99.90;;;;;;5125872;28;20199;-71
2022/11/17 05:17:05;;;;;;;3.10;2.90;;;7.10;99.90;;;;;;5126805;27;20252;-71
2022/11/17 05:19:34;;;;;;;2.85;2.75;;;7.20;99.90;;;;;;5127558;27;20540;-71
2022/11/17 05:22:01;;;;;;;2.80;2.70;;;7.20;99.90;;;;;;5132688;27;20211;-71
2022/11/17 05:24:29;;;;;;;3.75;3.55;;;7.30;99.90;;;;;;5131098;27;20215;-71
2022/11/17 05:26:56;;;;;;;3.80;3.50;;;7.30;99.90;;;;;;5129516;27;20218;-71
2022/11/17 05:29:24;;;;;;;3.50;3.30;;;7.30;99.90;;;;;;5125364;27;20223;-71
2022/11/17 05:31:51;;;;;;;3.25;3.05;;;7.30;99.90;;;;;;5132076;27;20636;-71
2022/11/17 05:34:19;;;;;;;3.30;3.10;;;7.40;99.90;;;;;;5131117;27;20196;-71
2022/11/17 05:36:46;;;;;;;4.03;3.75;;;7.40;99.90;;;;;;5129131;27;20569;-71
2022/11/17 05:39:14;;;;;;;3.67;3.38;;;7.40;99.90;;;;;;5129822;27;20311;-71
2022/11/17 05:41:43;;;;;;;3.95;3.65;;;7.40;99.90;;;;;;5130993;27;20216;-72
2022/11/17 05:44:10;;;;;;;3.45;3.25;;;7.30;99.90;;;;;;5124534;27;20660;-71
2022/11/17 05:46:38;;;;;;;3.15;2.95;;;7.30;99.90;;;;;;5127474;27;20192;-72
2022/11/17 05:49:05;;;;;;;3.13;2.92;;;7.30;99.90;;;;;;5129518;27;20212;-71
2022/11/17 05:51:32;;;;;;;3.08;2.88;;;7.30;99.90;;;;;;5127134;27;20241;-72
2022/11/17 05:54:00;;;;;;;3.38;3.10;;;7.40;99.90;;;;;;5129775;27;20200;-71
2022/11/17 05:56:40;;;;;;;3.45;2.85;;;7.40;99.90;;;;;;5126697;27;20196;-71
2022/11/17 05:59:14;;;;;;;3.45;3.25;;;7.40;99.90;;;;;;5129014;27;20704;-72
2022/11/17 06:01:46;;;;;;;4.53;4.18;;;7.40;99.90;;;;;;5134514;27;20751;-71
2022/11/17 06:04:17;;;;;;;4.35;4.05;;;7.40;99.90;;;;;;5131867;27;20200;-71
2022/11/17 06:06:46;;;;;;;3.65;3.45;;;7.40;99.90;;;;;;5130398;27;20222;-71
2022/11/17 06:09:13;;;;;;;4.07;3.83;;;7.40;99.90;;;;;;5128636;27;20220;-71
2022/11/17 06:11:41;;;;;;;4.35;4.05;;;7.40;99.90;;;;;;5126042;27;20185;-71
2022/11/17 06:14:10;;;;;;;4.28;3.97;;;7.40;99.90;;;;;;5131097;27;20219;-71
2022/11/17 06:16:42;;;;;;;4.25;3.95;;;7.40;99.90;;;;;;5126337;27;20573;-71
2022/11/17 06:19:13;;;;;;;5.60;4.85;;;7.40;99.90;;;;;;5127037;27;20216;-71
2022/11/17 06:21:41;;;;;;;4.53;4.22;;;7.30;99.90;;;;;;5128588;27;20231;-71
2022/11/17 06:24:09;;;;;;;4.90;4.50;;;7.30;99.90;;;;;;5117901;27;20200;-71
2022/11/17 06:26:37;;;;;;;4.70;4.30;;;7.30;99.90;;;;;;5131761;27;20220;-72
2022/11/17 06:29:05;;;;;;;4.50;4.10;;;7.30;99.90;;;;;;5124918;27;20267;-74
2022/11/17 06:31:34;;;;;;;4.60;4.30;;;7.30;99.90;;;;;;5126189;27;20281;-74
2022/11/17 06:34:02;;;;;;;4.70;4.40;;;7.40;99.90;;;;;;5128433;27;20196;-74
2022/11/17 06:36:30;;;;;;;4.32;4.03;;;7.40;99.90;;;;;;5126368;27;20192;-74
2022/11/17 06:38:58;;;;;;;5.32;4.93;;;7.40;99.90;;;;;;5128845;27;20224;-74
2022/11/17 06:41:25;;;;;;;4.07;3.65;;;7.40;99.90;;;;;;5130126;27;20219;-74
2022/11/17 06:43:52;;;;;;;4.20;3.90;;;7.40;99.90;;;;;;5130088;27;20232;-76
2022/11/17 06:46:20;;;;;;;4.40;4.10;;;7.40;99.90;;;;;;5120569;27;20641;-74
2022/11/17 06:48:49;;;;;;;4.22;3.92;;;7.40;99.90;;;;;;5123865;27;20219;-74
2022/11/17 06:51:16;;;;;;;3.58;3.38;;;7.50;99.90;;;;;;5121295;27;20199;-74
2022/11/17 06:53:44;;;;;;;4.15;3.85;;;7.40;99.90;;;;;;5130277;27;20688;-74
2022/11/17 06:56:12;;;;;;;4.60;4.30;;;7.40;99.90;;;;;;5131692;27;20208;-74
2022/11/17 06:58:40;;;;;;;4.25;3.90;;;7.40;99.90;;;;;;5129174;27;20240;-74
2022/11/17 07:01:09;;;;;;;3.72;3.53;;;7.40;99.90;;;;;;5128704;27;20665;-74
2022/11/17 07:03:38;;;;;;;4.00;3.70;;;7.30;99.90;;;;;;5129917;27;20227;-74
2022/11/17 07:06:09;;;;;;;4.00;3.70;;;7.30;99.90;;;;;;5130697;27;20203;-74
2022/11/17 07:08:37;;;;;;;4.07;3.72;;;7.40;99.90;;;;;;5125267;27;20216;-74
2022/11/17 07:11:05;;;;;;;4.05;3.70;;;7.50;99.90;;;;;;5121499;27;20322;-74
2022/11/17 07:13:33;;;;;;;3.60;3.40;;;7.50;99.90;;;;;;5127414;27;20318;-74
2022/11/17 07:16:05;;;;;;;3.95;3.72;;;7.60;99.90;;;;;;5130783;27;20192;-73
2022/11/17 07:18:34;;;;;;;4.10;3.80;;;7.60;99.90;;;;;;5128671;27;20211;-74
2022/11/17 07:21:04;;;;;;;3.65;3.42;;;7.70;99.90;;;;;;5130776;27;20679;-73
2022/11/17 07:23:33;;;;;;;3.55;3.35;;;7.70;99.90;;;;;;5129881;27;20553;-74
2022/11/17 07:26:02;;;;;;;3.90;3.70;;;7.70;99.90;;;;;;5126348;27;20207;-73
2022/11/17 07:28:29;;;;;;;3.97;3.67;;;7.70;99.90;;;;;;5126028;27;20231;-74
2022/11/17 07:31:01;;;;;;;4.32;3.95;;;7.60;99.90;;;;;;5127026;27;20196;-74
2022/11/17 07:33:28;;;;;;;4.22;3.92;;;7.60;99.90;;;;;;5126081;27;20212;-73
2022/11/17 07:35:55;;;;;;;4.30;4.00;;;7.60;99.90;;;;;;5124538;27;20770;-73
2022/11/17 07:38:23;;;;;;;3.88;3.63;;;7.60;99.90;;;;;;5125453;27;20252;-73
2022/11/17 07:40:51;;;;;;;4.13;3.83;;;7.60;99.90;;;;;;5126083;27;20243;-73
2022/11/17 07:43:18;;;;;;;4.68;4.35;;;7.70;99.90;;;;;;5126854;27;20265;-73
2022/11/17 07:45:46;;;;;;;4.53;4.22;;;7.80;99.90;;;;;;5127920;27;20200;-73
2022/11/17 07:48:13;;;;;;;3.83;3.53;;;7.80;99.90;;;;;;5127703;27;20216;-73
2022/11/17 07:50:41;;;;;;;3.97;3.58;;;7.80;99.90;;;;;;5132265;27;20188;-73
2022/11/17 07:53:08;;;;;;;3.60;3.40;;;7.80;99.90;;;;;;5124385;27;20220;-73
2022/11/17 07:55:35;;;;;;;3.90;3.60;;;7.80;99.90;;;;;;5116575;27;20193;-73
2022/11/17 07:58:04;;;;;;;3.67;3.42;;;7.80;99.90;;;;;;5121945;27;20211;-73
2022/11/17 08:00:32;;;;;;;3.45;3.25;;;7.80;99.90;;;;;;5121351;28;20200;-73
2022/11/17 08:03:02;;;;;;;3.80;3.50;;;7.90;99.90;;;;;;5122574;27;20220;-73
2022/11/17 08:05:31;;;;;;;4.10;3.80;;;7.90;99.90;;;;;;5122890;28;20665;-73
2022/11/17 08:07:59;;;;;;;5.07;4.63;;;7.90;99.90;;;;;;5124130;27;20269;-73
2022/11/17 08:10:30;;;;;;;4.90;4.50;;;7.90;99.90;;;;;;5122205;27;20238;-73
2022/11/17 08:12:59;;;;;;;5.07;4.53;;;7.90;99.90;;;;;;5119051;27;20216;-72
2022/11/17 08:15:29;;;;;;;4.85;4.07;;;7.80;99.90;;;;;;5122796;27;20188;-73
2022/11/17 08:17:57;;;;;;;4.50;4.10;;;7.90;99.90;;;;;;5121893;27;20216;-73
2022/11/17 08:20:26;;;;;;;4.78;4.38;;;7.90;99.90;;;;;;5122373;28;20220;-72
2022/11/17 08:22:54;;;;;;;4.50;4.10;;;7.90;99.90;;;;;;5123177;27;20629;-73
2022/11/17 08:25:22;;;;;;;5.15;4.57;;;7.90;99.90;;;;;;5123830;27;20200;-73
2022/11/17 08:27:51;;;;;;;7.05;4.93;;;8.00;99.90;;;;;;5117355;27;20220;-73
2022/11/17 08:30:19;;;;;;;5.88;5.38;;;8.10;99.90;;;;;;5120095;28;20220;-73
2022/11/17 08:32:52;;;;;;;5.93;5.43;;;8.10;99.90;;;;;;5120994;27;20243;-73
2022/11/17 08:35:21;;;;;;;6.30;5.78;;;8.20;99.90;;;;;;5120053;28;20196;-73
2022/11/17 08:37:48;;;;;;;6.07;5.53;;;8.20;99.90;;;;;;5123174;27;20246;-73
2022/11/17 08:40:16;;;;;;;6.05;5.55;;;8.30;99.90;;;;;;5135447;28;20224;-73
2022/11/17 08:42:44;;;;;;;6.45;5.85;;;8.30;99.90;;;;;;5130027;27;20311;-75
2022/11/17 08:45:12;;;;;;;7.15;6.18;;;8.20;99.90;;;;;;5123991;28;20200;-74
2022/11/17 08:47:40;;;;;;;6.05;5.55;;;8.30;99.90;;;;;;5122169;22;20610;-78
2022/11/17 08:50:09;;;;;;;5.50;5.00;;;8.30;99.90;;;;;;5087092;28;20197;-78
2022/11/17 08:52:36;;;;;;;6.10;5.60;;;8.30;99.90;;;;;;5085801;28;20209;-78
2022/11/17 08:55:05;;;;;;;6.00;5.50;;;8.40;99.90;;;;;;5096225;28;20201;-78
2022/11/17 08:57:33;;;;;;;5.40;4.90;;;8.40;99.90;;;;;;5093366;28;20225;-78
2022/11/17 09:00:01;;;;;;;5.60;5.07;;;8.40;99.90;;;;;;5092871;28;20280;-77
2022/11/17 09:02:28;;;;;;;5.00;4.40;;;8.50;99.90;;;;;;5089896;28;20224;-81
2022/11/17 09:04:55;;;;;;;4.85;4.45;;;8.50;99.90;;;;;;5092714;28;20197;-78
2022/11/17 09:07:24;;;;;;;5.13;4.72;;;8.60;99.90;;;;;;5089978;28;20233;-81
2022/11/17 09:09:51;;;;;;;5.10;4.65;;;8.70;99.90;;;;;;5081914;28;20497;-83
2022/11/17 09:12:19;;;;;;;4.50;4.20;;;8.80;99.90;;;;;;5091334;28;20694;-79
2022/11/17 09:14:46;;;;;;;4.50;4.10;;;8.90;99.90;;;;;;5088742;28;20630;-83
2022/11/17 09:17:13;;;;;;;3.92;3.63;;;9.00;99.90;;;;;;5088937;28;20761;-80
2022/11/17 09:19:41;;;;;;;3.95;3.65;;;9.10;99.90;;;;;;5089516;28;20509;-82
2022/11/17 09:22:08;;;;;;;5.25;3.97;;;9.20;99.90;;;;;;5091250;28;20298;-78
2022/11/17 09:24:37;;;;;;;4.57;4.22;;;9.30;99.90;;;;;;5084852;28;20271;-82
2022/11/17 09:27:05;;;;;;;6.50;5.90;;;9.30;99.90;;;;;;5088481;28;20225;-78
2022/11/17 09:29:32;;;;;;;5.47;4.53;;;9.20;99.90;;;;;;5095371;28;20193;-84
2022/11/17 09:31:59;;;;;;;5.10;4.63;;;9.10;99.90;;;;;;5085870;28;20221;-79
2022/11/17 09:34:28;;;;;;;5.32;4.82;;;9.10;99.90;;;;;;5091970;28;20202;-80
2022/11/17 09:36:55;;;;;;;5.70;5.10;;;9.10;99.90;;;;;;5090723;28;20462;-78
2022/11/17 09:39:22;;;;;;;5.22;4.72;;;9.10;99.90;;;;;;5091784;28;20200;-82
2022/11/17 09:41:53;;;;;;;10.70;4.97;;;9.10;99.90;;;;;;5078411;28;20213;-80
2022/11/17 09:44:28;;;;;;;5.70;4.80;;;9.00;99.90;;;;;;5086201;28;20197;-81
2022/11/17 09:47:07;;;;;;;4.85;4.47;;;9.00;99.90;;;;;;5090310;28;20392;-82
2022/11/17 09:49:41;;;;;;;5.20;4.10;;;9.00;99.90;;;;;;5089220;28;20211;-81
2022/11/17 09:52:19;;;;;;;4.63;4.22;;;8.90;99.90;;;;;;5082677;28;20216;-75
2022/11/17 09:54:52;;;;;;;5.90;3.80;;;8.90;99.90;;;;;;5090823;28;20213;-79
2022/11/17 09:57:33;;;;;;;4.40;3.97;;;8.90;99.90;;;;;;5086211;28;20222;-76
2022/11/17 10:00:07;;;;;;;3.95;3.65;;;8.90;99.90;;;;;;5091230;28;20193;-81
2022/11/17 10:02:35;;;;;;;4.93;4.53;;;8.90;99.90;;;;;;5082548;28;20225;-77
2022/11/17 10:05:02;;;;;;;4.25;3.95;;;9.00;99.90;;;;;;5085783;28;20398;-80
2022/11/17 10:07:31;;;;;;;4.38;4.03;;;9.10;99.90;;;;;;5095010;28;20252;-77
2022/11/17 10:10:01;;;;;;;4.47;4.10;;;9.10;99.90;;;;;;5084547;28;20619;-76
2022/11/17 10:12:38;;;;;;;4.10;3.65;;;9.10;99.90;;;;;;5089680;28;20229;-80
2022/11/17 10:15:22;;;;;;;5.22;4.82;;;9.10;99.90;;;;;;5087101;28;20284;-76
2022/11/17 10:17:51;;;;;;;6.15;5.53;;;9.10;99.90;;;;;;5088675;28;20228;-79
2022/11/17 10:20:19;;;;;;;5.95;5.40;;;9.10;99.90;;;;;;5093650;28;20437;-76
2022/11/17 10:22:48;;;;;;;6.72;6.07;;;9.10;99.90;;;;;;5086190;28;20226;-79
2022/11/17 10:25:37;;;;;;;10.23;7.50;;;9.20;99.90;;;;;;5079655;28;20205;-77
2022/11/17 10:28:07;;;;;;;8.13;7.28;;;9.20;99.90;;;;;;5085079;28;20250;-76
2022/11/17 10:30:36;;;;;;;7.35;6.65;;;9.30;99.90;;;;;;5081138;28;20289;-82
2022/11/17 10:33:04;;;;;;;7.38;6.35;;;9.40;99.90;;;;;;5081594;28;20228;-82
2022/11/17 10:35:34;;;;;;;6.40;5.88;;;9.50;99.90;;;;;;5090293;28;20205;-79
2022/11/17 10:38:05;;;;;;;6.18;5.22;;;9.50;99.90;;;;;;5081049;28;20219;-80
2022/11/17 10:40:45;;;;;;;5.30;4.80;;;9.40;99.90;;;;;;5085915;28;20190;-78
2022/11/17 10:43:25;;;;;;;5.55;5.05;;;9.50;99.90;;;;;;5090325;28;20228;-77
2022/11/17 10:45:55;;;;;;;4.88;4.47;;;9.50;99.90;;;;;;5082124;28;20196;-77
2022/11/17 10:48:28;;;;;;;5.65;5.07;;;9.60;99.90;;;;;;5085848;28;20622;-78
2022/11/17 10:50:57;;;;;;;7.47;5.18;;;9.80;99.90;;;;;;5087173;28;20194;-81
2022/11/17 10:53:31;;;;;;;6.57;5.32;;;9.90;99.90;;;;;;5090163;28;20217;-77
2022/11/17 10:56:05;;;;;;;5.55;5.05;;;9.90;99.90;;;;;;5084289;28;20201;-80
2022/11/17 10:58:55;;;;;;;5.82;5.30;;;9.90;99.90;;;;;;5092950;28;20295;-76
2022/11/17 11:01:29;;;;;;;7.45;6.72;;;10.00;99.90;;;;;;5076622;28;20270;-76
2022/11/17 11:03:56;;;;;;;7.38;5.65;;;10.30;99.90;;;;;;5081775;28;20230;-79
2022/11/17 11:06:26;;;;;;;5.68;5.15;;;10.50;99.90;;;;;;5091421;28;20202;-80
2022/11/17 11:08:57;;;;;;;5.28;4.80;;;10.60;99.90;;;;;;5089679;28;20228;-77
2022/11/17 11:11:41;;;;;;;6.25;5.65;;;10.50;99.90;;;;;;5095212;28;20551;-76
2022/11/17 11:14:19;;;;;;;4.50;4.10;;;10.40;99.90;;;;;;5081383;28;20232;-81
2022/11/17 11:16:49;;;;;;;5.10;4.70;;;10.30;99.90;;;;;;5090540;28;20197;-78
2022/11/17 11:19:18;;;;;;;4.95;4.55;;;10.30;99.90;;;;;;5090083;28;20574;-78
2022/11/17 11:22:03;;;;;;;5.10;4.60;;;10.40;99.90;;;;;;5084234;28;20205;-77
2022/11/17 11:24:43;;;;;;;5.88;4.63;;;10.30;99.90;;;;;;5079211;28;20189;-75
2022/11/17 11:27:26;;;;;;;4.95;4.50;;;10.40;99.90;;;;;;5083557;28;20212;-74
2022/11/17 11:30:02;;;;;;;5.00;4.05;;;10.40;99.90;;;;;;5081324;28;20591;-75
2022/11/17 11:32:41;;;;;;;4.82;4.43;;;10.40;99.90;;;;;;5088285;28;20598;-77
2022/11/17 11:35:45;;;;;;;5.45;4.13;;;10.40;99.90;;;;;;5081304;28;20209;-78
2022/11/17 11:38:44;;;;;;;4.78;4.38;;;10.40;99.90;;;;;;5060289;28;20250;-75
2022/11/17 11:41:21;;;;;;;4.05;3.75;;;10.50;99.90;;;;;;5083779;28;20208;-80
2022/11/17 11:44:02;;;;;;;4.78;4.38;;;10.60;99.90;;;;;;5083036;28;20615;-74
2022/11/17 11:46:41;;;;;;;4.88;4.47;;;10.70;99.90;;;;;;5086372;28;20197;-81
2022/11/17 11:49:26;;;;;;;5.93;4.90;;;10.70;99.90;;;;;;5082876;28;20214;-77
2022/11/17 11:51:54;;;;;;;5.50;5.00;;;10.60;99.90;;;;;;5085987;28;20470;-75
2022/11/17 11:54:32;;;;;;;4.70;4.30;;;10.50;99.90;;;;;;5088951;28;20198;-78
2022/11/17 11:57:00;;;;;;;5.05;4.65;;;10.50;99.90;;;;;;5076625;28;20213;-76
2022/11/17 11:59:38;;;;;;;4.53;4.13;;;10.50;99.90;;;;;;5091572;28;20547;-79
2022/11/17 12:02:21;;;;;;;4.13;3.83;;;10.40;99.90;;;;;;5085481;28;20729;-77
2022/11/17 12:04:58;;;;;;;4.40;4.10;;;10.40;99.90;;;;;;5089279;28;20210;-79
2022/11/17 12:07:34;;;;;;;4.85;4.45;;;10.40;99.90;;;;;;5088238;28;20224;-79
2022/11/17 12:10:06;;;;;;;4.63;4.22;;;10.40;99.90;;;;;;5093583;28;20337;-76
2022/11/17 12:12:37;;;;;;;4.75;4.32;;;10.50;99.90;;;;;;5083628;28;20212;-75
2022/11/17 12:15:32;;;;;;;4.40;4.07;;;10.40;99.90;;;;;;5084594;28;20197;-78
2022/11/17 12:18:04;;;;;;;4.63;4.22;;;10.50;99.90;;;;;;5101562;22;20225;-74
2022/11/17 12:20:51;;;;;;;5.00;4.10;;;10.40;99.90;;;;;;5078559;28;20185;-73
2022/11/17 12:23:32;;;;;;;4.13;3.83;;;10.40;99.90;;;;;;5079857;28;20756;-72
2022/11/17 12:26:01;;;;;;;4.72;4.32;;;10.40;99.90;;;;;;5088930;28;20194;-73
2022/11/17 12:28:32;;;;;;;5.13;3.90;;;10.40;99.90;;;;;;5089259;28;20221;-74
2022/11/17 12:31:01;;;;;;;5.18;4.68;;;10.40;99.90;;;;;;5088965;28;20521;-75
2022/11/17 12:34:11;;;;;;;4.80;4.10;;;10.40;99.90;;;;;;5090295;28;20229;-75
2022/11/17 12:36:40;;;;;;;4.38;4.07;;;10.50;99.90;;;;;;5086036;28;20189;-75
2022/11/17 12:39:46;;;;;;;4.80;4.30;;;10.50;99.90;;;;;;5088962;28;20915;-74
2022/11/17 12:42:13;;;;;;;4.72;4.32;;;10.50;99.90;;;;;;5083572;28;20281;-74
2022/11/17 12:44:59;;;;;;;5.57;4.90;;;10.40;99.90;;;;;;5088606;28;20217;-73
2022/11/17 12:47:28;;;;;;;5.40;4.93;;;10.50;99.90;;;;;;5089763;28;20221;-74
2022/11/17 12:50:28;;;;;;;5.72;5.22;;;10.50;99.90;;;;;;5091083;28;20200;-74
2022/11/17 12:53:13;;;;;;;4.68;4.28;;;10.50;99.90;;;;;;5083925;28;20498;-74
2022/11/17 12:56:08;;;;;;;4.43;4.13;;;10.40;99.90;;;;;;5090843;28;20193;-71
2022/11/17 12:58:46;;;;;;;4.45;4.10;;;10.40;99.90;;;;;;5088432;28;20247;-75
2022/11/17 13:01:20;;;;;;;4.70;4.30;;;10.30;99.90;;;;;;5085656;28;20262;-73
2022/11/17 13:03:55;;;;;;;3.95;3.65;;;10.30;99.90;;;;;;5093636;28;20220;-74
2022/11/17 13:06:22;;;;;;;3.72;3.38;;;10.30;99.90;;;;;;5098720;28;20200;-74
2022/11/17 13:08:59;;;;;;;4.03;3.72;;;10.30;99.90;;;;;;5088127;28;20224;-75
2022/11/17 13:11:26;;;;;;;4.13;3.75;;;10.30;99.90;;;;;;5089182;28;20193;-74
2022/11/17 13:14:10;;;;;;;3.75;3.40;;;10.30;99.90;;;;;;5089503;28;20221;-74
2022/11/17 13:16:44;;;;;;;3.28;2.97;;;10.30;99.90;;;;;;5081378;28;20200;-75
2022/11/17 13:19:31;;;;;;;3.83;3.53;;;10.40;99.90;;;;;;5082939;28;20427;-75
2022/11/17 13:22:00;;;;;;;3.75;3.45;;;10.50;99.90;;;;;;5075804;28;20599;-74
2022/11/17 13:24:34;;;;;;;3.42;3.13;;;10.60;99.90;;;;;;5087254;28;20561;-75
2022/11/17 13:27:03;;;;;;;4.03;3.72;;;10.80;99.90;;;;;;5084649;28;20751;-74
2022/11/17 13:29:30;;;;;;;3.72;3.42;;;10.90;99.90;;;;;;5084788;28;20194;-73
2022/11/17 13:32:16;;;;;;;3.70;3.40;;;11.10;99.90;;;;;;5085600;28;20342;-73
2022/11/17 13:34:49;;;;;;;4.97;4.20;;;11.10;99.90;;;;;;5086584;28;20246;-71
2022/11/17 13:37:18;;;;;;;3.78;3.47;;;11.10;99.90;;;;;;5078078;28;20229;-74
2022/11/17 13:40:01;;;;;;;3.63;3.33;;;11.00;99.90;;;;;;5087153;28;20618;-74
2022/11/17 13:42:32;;;;;;;5.10;3.78;;;11.00;99.90;;;;;;5083419;28;20229;-74
2022/11/17 13:45:03;;;;;;;3.60;3.30;;;11.10;99.90;;;;;;5087283;28;20693;-71